sensor_id;sensor_type;location;lat;lon;timestamp;P1;durP1;ratioP1;P2;durP2;ratioP2
12760;SDS011;6444;49.742;6.114;2023-07-24T00:01:34;5.45;;;3.25;;
12760;SDS011;6444;49.742;6.114;2023-07-24T00:04:01;4.32;;;3.00;;
12760;SDS011;6444;49.742;6.114;2023-07-24T00:06:27;3.62;;;2.80;;
12760;SDS011;6444;49.742;6.114;2023-07-24T00:08:54;3.97;;;3.33;;
12760;SDS011;6444;49.742;6.114;2023-07-24T00:11:20;6.25;;;3.53;;
12760;SDS011;6444;49.742;6.114;2023-07-24T00:13:47;3.75;;;3.35;;
12760;SDS011;6444;49.742;6.114;2023-07-24T00:16:14;3.45;;;3.15;;
12760;SDS011;6444;49.742;6.114;2023-07-24T00:18:40;4.05;;;3.15;;
12760;SDS011;6444;49.742;6.114;2023-07-24T00:21:08;3.70;;;3.05;;
12760;SDS011;6444;49.742;6.114;2023-07-24T00:23:37;4.10;;;2.83;;
12760;SDS011;6444;49.742;6.114;2023-07-24T00:26:04;3.75;;;3.30;;
12760;SDS011;6444;49.742;6.114;2023-07-24T00:28:31;4.22;;;3.33;;
12760;SDS011;6444;49.742;6.114;2023-07-24T00:30:57;5.50;;;3.30;;
12760;SDS011;6444;49.742;6.114;2023-07-24T00:33:24;3.97;;;3.33;;
12760;SDS011;6444;49.742;6.114;2023-07-24T00:35:54;3.95;;;3.15;;
12760;SDS011;6444;49.742;6.114;2023-07-24T00:38:17;4.55;;;3.25;;
12760;SDS011;6444;49.742;6.114;2023-07-24T00:40:44;5.72;;;3.90;;
12760;SDS011;6444;49.742;6.114;2023-07-24T00:43:11;4.33;;;3.73;;
12760;SDS011;6444;49.742;6.114;2023-07-24T00:45:38;5.20;;;3.72;;
12760;SDS011;6444;49.742;6.114;2023-07-24T00:48:04;6.85;;;3.65;;
12760;SDS011;6444;49.742;6.114;2023-07-24T00:50:31;4.30;;;3.87;;
12760;SDS011;6444;49.742;6.114;2023-07-24T00:52:58;5.55;;;3.50;;
12760;SDS011;6444;49.742;6.114;2023-07-24T00:55:25;3.78;;;3.15;;
12760;SDS011;6444;49.742;6.114;2023-07-24T00:57:52;6.55;;;3.78;;
12760;SDS011;6444;49.742;6.114;2023-07-24T01:00:18;3.90;;;3.28;;
12760;SDS011;6444;49.742;6.114;2023-07-24T01:02:45;5.47;;;3.58;;
12760;SDS011;6444;49.742;6.114;2023-07-24T01:05:13;5.00;;;3.90;;
12760;SDS011;6444;49.742;6.114;2023-07-24T01:07:39;5.43;;;3.83;;
12760;SDS011;6444;49.742;6.114;2023-07-24T01:10:06;10.00;;;3.67;;
12760;SDS011;6444;49.742;6.114;2023-07-24T01:12:36;5.80;;;4.03;;
12760;SDS011;6444;49.742;6.114;2023-07-24T01:15:09;5.90;;;3.47;;
12760;SDS011;6444;49.742;6.114;2023-07-24T01:17:35;5.82;;;4.12;;
12760;SDS011;6444;49.742;6.114;2023-07-24T01:20:01;7.28;;;4.10;;
12760;SDS011;6444;49.742;6.114;2023-07-24T01:27:41;5.93;;;4.10;;
12760;SDS011;6444;49.742;6.114;2023-07-24T01:30:07;5.05;;;3.92;;
12760;SDS011;6444;49.742;6.114;2023-07-24T01:32:34;7.05;;;3.70;;
12760;SDS011;6444;49.742;6.114;2023-07-24T01:35:00;5.47;;;3.95;;
12760;SDS011;6444;49.742;6.114;2023-07-24T01:37:27;5.55;;;3.37;;
12760;SDS011;6444;49.742;6.114;2023-07-24T01:39:54;5.03;;;3.75;;
12760;SDS011;6444;49.742;6.114;2023-07-24T01:42:20;4.40;;;3.25;;
12760;SDS011;6444;49.742;6.114;2023-07-24T01:44:53;5.10;;;3.90;;
12760;SDS011;6444;49.742;6.114;2023-07-24T01:47:19;5.85;;;4.00;;
12760;SDS011;6444;49.742;6.114;2023-07-24T01:49:47;6.78;;;3.83;;
12760;SDS011;6444;49.742;6.114;2023-07-24T01:52:14;5.78;;;4.37;;
12760;SDS011;6444;49.742;6.114;2023-07-24T01:54:41;4.62;;;3.97;;
12760;SDS011;6444;49.742;6.114;2023-07-24T01:57:07;6.65;;;3.85;;
12760;SDS011;6444;49.742;6.114;2023-07-24T01:59:37;6.32;;;4.15;;
12760;SDS011;6444;49.742;6.114;2023-07-24T02:02:04;6.75;;;3.87;;
12760;SDS011;6444;49.742;6.114;2023-07-24T02:04:31;6.47;;;3.72;;
12760;SDS011;6444;49.742;6.114;2023-07-24T02:06:57;4.95;;;4.00;;
12760;SDS011;6444;49.742;6.114;2023-07-24T02:09:24;5.57;;;3.72;;
12760;SDS011;6444;49.742;6.114;2023-07-24T02:11:50;5.85;;;4.05;;
12760;SDS011;6444;49.742;6.114;2023-07-24T02:14:18;4.72;;;3.97;;
12760;SDS011;6444;49.742;6.114;2023-07-24T02:16:44;4.15;;;3.67;;
12760;SDS011;6444;49.742;6.114;2023-07-24T02:19:11;6.25;;;4.22;;
12760;SDS011;6444;49.742;6.114;2023-07-24T02:21:38;5.75;;;4.80;;
12760;SDS011;6444;49.742;6.114;2023-07-24T02:24:04;5.43;;;4.25;;
12760;SDS011;6444;49.742;6.114;2023-07-24T02:26:32;5.87;;;3.78;;
12760;SDS011;6444;49.742;6.114;2023-07-24T02:28:58;5.50;;;4.50;;
12760;SDS011;6444;49.742;6.114;2023-07-24T02:31:25;5.78;;;4.18;;
12760;SDS011;6444;49.742;6.114;2023-07-24T02:33:52;5.18;;;3.95;;
12760;SDS011;6444;49.742;6.114;2023-07-24T02:36:18;5.20;;;4.25;;
12760;SDS011;6444;49.742;6.114;2023-07-24T02:38:46;5.37;;;4.18;;
12760;SDS011;6444;49.742;6.114;2023-07-24T02:41:12;5.80;;;4.18;;
12760;SDS011;6444;49.742;6.114;2023-07-24T02:43:39;7.05;;;4.05;;
12760;SDS011;6444;49.742;6.114;2023-07-24T02:46:05;5.72;;;4.30;;
12760;SDS011;6444;49.742;6.114;2023-07-24T02:48:33;5.95;;;4.40;;
12760;SDS011;6444;49.742;6.114;2023-07-24T02:50:59;9.73;;;4.60;;
12760;SDS011;6444;49.742;6.114;2023-07-24T02:53:26;7.87;;;5.37;;
12760;SDS011;6444;49.742;6.114;2023-07-24T02:55:53;5.65;;;4.40;;
12760;SDS011;6444;49.742;6.114;2023-07-24T02:58:19;5.80;;;4.40;;
12760;SDS011;6444;49.742;6.114;2023-07-24T03:00:47;6.95;;;4.47;;
12760;SDS011;6444;49.742;6.114;2023-07-24T03:03:13;6.32;;;5.12;;
12760;SDS011;6444;49.742;6.114;2023-07-24T03:05:40;9.77;;;5.05;;
12760;SDS011;6444;49.742;6.114;2023-07-24T03:08:07;6.32;;;4.80;;
12760;SDS011;6444;49.742;6.114;2023-07-24T03:10:33;6.53;;;4.55;;
12760;SDS011;6444;49.742;6.114;2023-07-24T03:13:01;6.25;;;4.35;;
12760;SDS011;6444;49.742;6.114;2023-07-24T03:15:27;6.12;;;4.72;;
12760;SDS011;6444;49.742;6.114;2023-07-24T03:17:54;7.20;;;4.65;;
12760;SDS011;6444;49.742;6.114;2023-07-24T03:20:21;6.97;;;4.43;;
12760;SDS011;6444;49.742;6.114;2023-07-24T03:22:47;6.32;;;4.53;;
12760;SDS011;6444;49.742;6.114;2023-07-24T03:25:15;6.72;;;4.68;;
12760;SDS011;6444;49.742;6.114;2023-07-24T03:27:41;7.93;;;4.75;;
12760;SDS011;6444;49.742;6.114;2023-07-24T03:30:08;6.18;;;4.55;;
12760;SDS011;6444;49.742;6.114;2023-07-24T03:32:36;5.82;;;4.87;;
12760;SDS011;6444;49.742;6.114;2023-07-24T03:35:01;7.00;;;4.57;;
12760;SDS011;6444;49.742;6.114;2023-07-24T03:37:28;5.65;;;4.20;;
12760;SDS011;6444;49.742;6.114;2023-07-24T03:39:55;5.85;;;4.70;;
12760;SDS011;6444;49.742;6.114;2023-07-24T03:42:26;6.78;;;5.15;;
12760;SDS011;6444;49.742;6.114;2023-07-24T03:44:52;7.07;;;5.12;;
12760;SDS011;6444;49.742;6.114;2023-07-24T03:47:18;6.53;;;5.40;;
12760;SDS011;6444;49.742;6.114;2023-07-24T03:49:45;6.20;;;5.07;;
12760;SDS011;6444;49.742;6.114;2023-07-24T03:52:12;6.03;;;4.80;;
12760;SDS011;6444;49.742;6.114;2023-07-24T03:54:38;7.03;;;4.70;;
12760;SDS011;6444;49.742;6.114;2023-07-24T03:57:05;8.85;;;5.28;;
12760;SDS011;6444;49.742;6.114;2023-07-24T03:59:32;7.53;;;4.53;;
12760;SDS011;6444;49.742;6.114;2023-07-24T04:01:59;7.87;;;4.80;;
12760;SDS011;6444;49.742;6.114;2023-07-24T04:04:26;7.15;;;4.93;;
12760;SDS011;6444;49.742;6.114;2023-07-24T04:06:52;6.45;;;4.97;;
12760;SDS011;6444;49.742;6.114;2023-07-24T04:09:19;7.28;;;5.22;;
12760;SDS011;6444;49.742;6.114;2023-07-24T04:11:46;9.02;;;4.93;;
12760;SDS011;6444;49.742;6.114;2023-07-24T04:14:13;8.77;;;5.35;;
12760;SDS011;6444;49.742;6.114;2023-07-24T04:16:39;6.82;;;5.70;;
12760;SDS011;6444;49.742;6.114;2023-07-24T04:19:06;8.30;;;5.03;;
12760;SDS011;6444;49.742;6.114;2023-07-24T04:21:33;7.78;;;5.25;;
12760;SDS011;6444;49.742;6.114;2023-07-24T04:24:00;10.30;;;5.15;;
12760;SDS011;6444;49.742;6.114;2023-07-24T04:26:27;7.85;;;4.57;;
12760;SDS011;6444;49.742;6.114;2023-07-24T04:28:53;6.30;;;5.07;;
12760;SDS011;6444;49.742;6.114;2023-07-24T04:31:20;7.43;;;5.20;;
12760;SDS011;6444;49.742;6.114;2023-07-24T04:33:47;5.68;;;4.72;;
12760;SDS011;6444;49.742;6.114;2023-07-24T04:36:14;5.95;;;4.45;;
12760;SDS011;6444;49.742;6.114;2023-07-24T04:38:41;6.85;;;4.62;;
12760;SDS011;6444;49.742;6.114;2023-07-24T04:41:08;4.53;;;3.55;;
12760;SDS011;6444;49.742;6.114;2023-07-24T04:43:35;6.43;;;4.90;;
12760;SDS011;6444;49.742;6.114;2023-07-24T04:46:01;6.62;;;4.32;;
12760;SDS011;6444;49.742;6.114;2023-07-24T04:48:28;5.47;;;4.10;;
12760;SDS011;6444;49.742;6.114;2023-07-24T04:50:55;6.40;;;3.95;;
12760;SDS011;6444;49.742;6.114;2023-07-24T04:53:22;7.40;;;4.18;;
12760;SDS011;6444;49.742;6.114;2023-07-24T04:55:49;7.20;;;4.35;;
12760;SDS011;6444;49.742;6.114;2023-07-24T04:58:15;7.55;;;4.20;;
12760;SDS011;6444;49.742;6.114;2023-07-24T05:00:42;5.32;;;3.83;;
12760;SDS011;6444;49.742;6.114;2023-07-24T05:03:08;7.62;;;4.80;;
12760;SDS011;6444;49.742;6.114;2023-07-24T05:05:36;7.57;;;4.45;;
12760;SDS011;6444;49.742;6.114;2023-07-24T05:08:05;7.37;;;4.62;;
12760;SDS011;6444;49.742;6.114;2023-07-24T05:10:35;7.60;;;6.12;;
12760;SDS011;6444;49.742;6.114;2023-07-24T05:13:01;7.12;;;4.32;;
12760;SDS011;6444;49.742;6.114;2023-07-24T05:15:28;7.43;;;4.30;;
12760;SDS011;6444;49.742;6.114;2023-07-24T05:17:54;5.62;;;3.85;;
12760;SDS011;6444;49.742;6.114;2023-07-24T05:20:21;4.53;;;3.60;;
12760;SDS011;6444;49.742;6.114;2023-07-24T05:22:48;5.45;;;3.37;;
12760;SDS011;6444;49.742;6.114;2023-07-24T05:25:15;4.87;;;4.15;;
12760;SDS011;6444;49.742;6.114;2023-07-24T05:27:42;4.93;;;4.30;;
12760;SDS011;6444;49.742;6.114;2023-07-24T05:30:08;5.53;;;3.95;;
12760;SDS011;6444;49.742;6.114;2023-07-24T05:32:36;6.13;;;4.53;;
12760;SDS011;6444;49.742;6.114;2023-07-24T05:35:03;6.13;;;4.77;;
12760;SDS011;6444;49.742;6.114;2023-07-24T05:37:29;5.50;;;4.57;;
12760;SDS011;6444;49.742;6.114;2023-07-24T05:39:56;6.28;;;4.07;;
12760;SDS011;6444;49.742;6.114;2023-07-24T05:42:22;7.12;;;4.30;;
12760;SDS011;6444;49.742;6.114;2023-07-24T05:44:49;4.62;;;3.80;;
12760;SDS011;6444;49.742;6.114;2023-07-24T05:47:16;5.10;;;3.75;;
12760;SDS011;6444;49.742;6.114;2023-07-24T05:49:42;5.40;;;3.90;;
12760;SDS011;6444;49.742;6.114;2023-07-24T05:52:09;5.53;;;4.10;;
12760;SDS011;6444;49.742;6.114;2023-07-24T05:54:36;5.40;;;4.87;;
12760;SDS011;6444;49.742;6.114;2023-07-24T05:57:02;5.62;;;3.95;;
12760;SDS011;6444;49.742;6.114;2023-07-24T05:59:29;5.78;;;4.12;;
12760;SDS011;6444;49.742;6.114;2023-07-24T06:01:55;7.10;;;5.20;;
12760;SDS011;6444;49.742;6.114;2023-07-24T06:04:22;4.90;;;4.30;;
12760;SDS011;6444;49.742;6.114;2023-07-24T06:06:49;6.97;;;4.60;;
12760;SDS011;6444;49.742;6.114;2023-07-24T06:09:15;4.60;;;3.97;;
12760;SDS011;6444;49.742;6.114;2023-07-24T06:11:43;5.37;;;3.72;;
12760;SDS011;6444;49.742;6.114;2023-07-24T06:14:09;6.18;;;3.87;;
12760;SDS011;6444;49.742;6.114;2023-07-24T06:16:36;4.93;;;4.10;;
12760;SDS011;6444;49.742;6.114;2023-07-24T06:19:03;6.37;;;4.72;;
12760;SDS011;6444;49.742;6.114;2023-07-24T06:21:29;8.07;;;4.80;;
12760;SDS011;6444;49.742;6.114;2023-07-24T06:23:57;7.15;;;4.30;;
12760;SDS011;6444;49.742;6.114;2023-07-24T06:26:23;8.15;;;5.85;;
12760;SDS011;6444;49.742;6.114;2023-07-24T06:28:50;5.85;;;4.43;;
12760;SDS011;6444;49.742;6.114;2023-07-24T06:31:16;6.40;;;4.78;;
12760;SDS011;6444;49.742;6.114;2023-07-24T06:33:43;8.20;;;5.10;;
12760;SDS011;6444;49.742;6.114;2023-07-24T06:36:11;5.97;;;4.07;;
12760;SDS011;6444;49.742;6.114;2023-07-24T06:38:37;7.00;;;4.53;;
12760;SDS011;6444;49.742;6.114;2023-07-24T06:41:04;7.55;;;4.28;;
12760;SDS011;6444;49.742;6.114;2023-07-24T06:43:30;5.50;;;4.50;;
12760;SDS011;6444;49.742;6.114;2023-07-24T06:45:58;7.75;;;5.00;;
12760;SDS011;6444;49.742;6.114;2023-07-24T06:48:24;8.20;;;4.47;;
12760;SDS011;6444;49.742;6.114;2023-07-24T06:50:51;7.95;;;4.93;;
12760;SDS011;6444;49.742;6.114;2023-07-24T06:53:18;5.55;;;4.22;;
12760;SDS011;6444;49.742;6.114;2023-07-24T06:55:44;7.00;;;4.68;;
12760;SDS011;6444;49.742;6.114;2023-07-24T06:58:12;6.60;;;4.55;;
12760;SDS011;6444;49.742;6.114;2023-07-24T07:00:38;6.60;;;4.78;;
12760;SDS011;6444;49.742;6.114;2023-07-24T07:03:05;7.37;;;5.15;;
12760;SDS011;6444;49.742;6.114;2023-07-24T07:05:32;8.27;;;4.78;;
12760;SDS011;6444;49.742;6.114;2023-07-24T07:07:58;9.40;;;5.37;;
12760;SDS011;6444;49.742;6.114;2023-07-24T07:10:26;7.60;;;4.95;;
12760;SDS011;6444;49.742;6.114;2023-07-24T07:12:52;7.47;;;4.55;;
12760;SDS011;6444;49.742;6.114;2023-07-24T07:15:19;5.28;;;4.35;;
12760;SDS011;6444;49.742;6.114;2023-07-24T07:17:46;7.70;;;5.00;;
12760;SDS011;6444;49.742;6.114;2023-07-24T07:20:12;6.03;;;4.50;;
12760;SDS011;6444;49.742;6.114;2023-07-24T07:22:39;6.60;;;4.68;;
12760;SDS011;6444;49.742;6.114;2023-07-24T07:25:05;7.23;;;5.63;;
12760;SDS011;6444;49.742;6.114;2023-07-24T07:27:36;6.35;;;4.87;;
12760;SDS011;6444;49.742;6.114;2023-07-24T07:30:03;6.25;;;4.82;;
12760;SDS011;6444;49.742;6.114;2023-07-24T07:32:29;7.95;;;5.10;;
12760;SDS011;6444;49.742;6.114;2023-07-24T07:34:56;6.37;;;4.35;;
12760;SDS011;6444;49.742;6.114;2023-07-24T07:37:22;10.23;;;7.90;;
12760;SDS011;6444;49.742;6.114;2023-07-24T07:39:49;7.25;;;5.20;;
12760;SDS011;6444;49.742;6.114;2023-07-24T07:42:15;7.73;;;5.87;;
12760;SDS011;6444;49.742;6.114;2023-07-24T07:44:42;6.22;;;4.45;;
12760;SDS011;6444;49.742;6.114;2023-07-24T07:47:09;9.15;;;4.20;;
12760;SDS011;6444;49.742;6.114;2023-07-24T07:49:35;10.73;;;5.25;;
12760;SDS011;6444;49.742;6.114;2023-07-24T07:52:03;5.65;;;4.80;;
12760;SDS011;6444;49.742;6.114;2023-07-24T07:54:29;7.85;;;4.82;;
12760;SDS011;6444;49.742;6.114;2023-07-24T07:56:56;5.05;;;4.28;;
12760;SDS011;6444;49.742;6.114;2023-07-24T07:59:23;6.28;;;3.90;;
12760;SDS011;6444;49.742;6.114;2023-07-24T08:01:49;5.50;;;3.97;;
12760;SDS011;6444;49.742;6.114;2023-07-24T08:04:17;6.40;;;4.20;;
12760;SDS011;6444;49.742;6.114;2023-07-24T08:06:43;6.75;;;4.30;;
12760;SDS011;6444;49.742;6.114;2023-07-24T08:09:10;6.75;;;4.55;;
12760;SDS011;6444;49.742;6.114;2023-07-24T08:11:37;5.87;;;4.80;;
12760;SDS011;6444;49.742;6.114;2023-07-24T08:14:03;4.80;;;4.12;;
12760;SDS011;6444;49.742;6.114;2023-07-24T08:16:31;6.87;;;4.30;;
12760;SDS011;6444;49.742;6.114;2023-07-24T08:18:58;5.43;;;4.65;;
12760;SDS011;6444;49.742;6.114;2023-07-24T08:21:25;6.35;;;4.65;;
12760;SDS011;6444;49.742;6.114;2023-07-24T08:23:51;4.60;;;4.05;;
12760;SDS011;6444;49.742;6.114;2023-07-24T08:26:18;7.35;;;4.22;;
12760;SDS011;6444;49.742;6.114;2023-07-24T08:28:45;7.37;;;4.72;;
12760;SDS011;6444;49.742;6.114;2023-07-24T08:31:11;10.80;;;4.70;;
12760;SDS011;6444;49.742;6.114;2023-07-24T08:33:38;5.85;;;3.95;;
12760;SDS011;6444;49.742;6.114;2023-07-24T08:36:05;7.35;;;4.65;;
12760;SDS011;6444;49.742;6.114;2023-07-24T08:38:31;5.32;;;4.35;;
12760;SDS011;6444;49.742;6.114;2023-07-24T08:41:04;5.50;;;4.55;;
12760;SDS011;6444;49.742;6.114;2023-07-24T08:43:30;4.55;;;3.80;;
12760;SDS011;6444;49.742;6.114;2023-07-24T08:45:57;5.15;;;4.25;;
12760;SDS011;6444;49.742;6.114;2023-07-24T08:48:24;5.37;;;4.20;;
12760;SDS011;6444;49.742;6.114;2023-07-24T08:50:54;5.55;;;4.37;;
12760;SDS011;6444;49.742;6.114;2023-07-24T08:53:20;6.07;;;4.53;;
12760;SDS011;6444;49.742;6.114;2023-07-24T08:55:47;8.95;;;5.57;;
12760;SDS011;6444;49.742;6.114;2023-07-24T08:58:13;5.62;;;4.25;;
12760;SDS011;6444;49.742;6.114;2023-07-24T09:00:40;5.87;;;4.57;;
12760;SDS011;6444;49.742;6.114;2023-07-24T09:03:07;6.05;;;4.43;;
12760;SDS011;6444;49.742;6.114;2023-07-24T09:05:33;5.62;;;4.35;;
12760;SDS011;6444;49.742;6.114;2023-07-24T09:08:00;7.30;;;4.97;;
12760;SDS011;6444;49.742;6.114;2023-07-24T09:10:27;6.80;;;4.25;;
12760;SDS011;6444;49.742;6.114;2023-07-24T09:12:54;6.22;;;4.00;;
12760;SDS011;6444;49.742;6.114;2023-07-24T09:15:20;6.00;;;4.47;;
12760;SDS011;6444;49.742;6.114;2023-07-24T09:17:49;5.60;;;4.62;;
12760;SDS011;6444;49.742;6.114;2023-07-24T09:20:13;6.60;;;4.68;;
12760;SDS011;6444;49.742;6.114;2023-07-24T09:22:47;9.13;;;4.72;;
12760;SDS011;6444;49.742;6.114;2023-07-24T09:25:06;7.43;;;5.40;;
12760;SDS011;6444;49.742;6.114;2023-07-24T09:27:33;7.15;;;4.68;;
12760;SDS011;6444;49.742;6.114;2023-07-24T09:30:00;7.37;;;4.75;;
12760;SDS011;6444;49.742;6.114;2023-07-24T09:32:27;6.32;;;5.22;;
12760;SDS011;6444;49.742;6.114;2023-07-24T09:34:53;8.35;;;4.90;;
12760;SDS011;6444;49.742;6.114;2023-07-24T09:37:24;9.38;;;4.68;;
12760;SDS011;6444;49.742;6.114;2023-07-24T09:39:53;6.50;;;4.60;;
12760;SDS011;6444;49.742;6.114;2023-07-24T09:42:27;6.85;;;4.43;;
12760;SDS011;6444;49.742;6.114;2023-07-24T09:44:58;7.68;;;5.03;;
12760;SDS011;6444;49.742;6.114;2023-07-24T09:47:25;5.78;;;4.85;;
12760;SDS011;6444;49.742;6.114;2023-07-24T09:49:51;7.03;;;5.03;;
12760;SDS011;6444;49.742;6.114;2023-07-24T09:52:18;8.70;;;4.97;;
12760;SDS011;6444;49.742;6.114;2023-07-24T09:54:59;6.60;;;4.60;;
12760;SDS011;6444;49.742;6.114;2023-07-24T09:57:35;10.45;;;5.12;;
12760;SDS011;6444;49.742;6.114;2023-07-24T10:00:02;8.07;;;5.50;;
12760;SDS011;6444;49.742;6.114;2023-07-24T10:02:28;11.05;;;5.80;;
12760;SDS011;6444;49.742;6.114;2023-07-24T10:04:55;6.90;;;4.82;;
12760;SDS011;6444;49.742;6.114;2023-07-24T10:07:22;5.93;;;4.45;;
12760;SDS011;6444;49.742;6.114;2023-07-24T10:09:49;8.00;;;5.35;;
12760;SDS011;6444;49.742;6.114;2023-07-24T10:12:16;5.95;;;5.00;;
12760;SDS011;6444;49.742;6.114;2023-07-24T10:14:42;6.68;;;4.90;;
12760;SDS011;6444;49.742;6.114;2023-07-24T10:17:08;6.15;;;5.30;;
12760;SDS011;6444;49.742;6.114;2023-07-24T10:19:38;6.22;;;4.75;;
12760;SDS011;6444;49.742;6.114;2023-07-24T10:22:01;6.93;;;4.47;;
12760;SDS011;6444;49.742;6.114;2023-07-24T10:24:29;5.40;;;4.40;;
12760;SDS011;6444;49.742;6.114;2023-07-24T10:26:56;5.47;;;4.05;;
12760;SDS011;6444;49.742;6.114;2023-07-24T10:29:25;4.93;;;4.05;;
12760;SDS011;6444;49.742;6.114;2023-07-24T10:31:52;4.82;;;3.42;;
12760;SDS011;6444;49.742;6.114;2023-07-24T10:34:18;5.62;;;3.75;;
12760;SDS011;6444;49.742;6.114;2023-07-24T10:36:45;5.78;;;4.78;;
12760;SDS011;6444;49.742;6.114;2023-07-24T10:39:15;5.62;;;3.65;;
12760;SDS011;6444;49.742;6.114;2023-07-24T10:41:41;4.90;;;3.40;;
12760;SDS011;6444;49.742;6.114;2023-07-24T10:44:07;4.40;;;3.25;;
12760;SDS011;6444;49.742;6.114;2023-07-24T10:46:40;3.40;;;2.80;;
12760;SDS011;6444;49.742;6.114;2023-07-24T10:49:07;4.75;;;2.95;;
12760;SDS011;6444;49.742;6.114;2023-07-24T10:51:33;5.07;;;3.30;;
12760;SDS011;6444;49.742;6.114;2023-07-24T10:54:01;3.93;;;3.00;;
12760;SDS011;6444;49.742;6.114;2023-07-24T10:56:27;3.80;;;2.17;;
12760;SDS011;6444;49.742;6.114;2023-07-24T10:58:54;7.30;;;4.75;;
12760;SDS011;6444;49.742;6.114;2023-07-24T11:01:21;5.35;;;4.32;;
12760;SDS011;6444;49.742;6.114;2023-07-24T11:03:48;3.77;;;2.87;;
12760;SDS011;6444;49.742;6.114;2023-07-24T11:06:16;2.67;;;1.90;;
12760;SDS011;6444;49.742;6.114;2023-07-24T11:08:41;1.80;;;1.67;;
12760;SDS011;6444;49.742;6.114;2023-07-24T11:11:08;1.62;;;1.50;;
12760;SDS011;6444;49.742;6.114;2023-07-24T11:13:35;1.75;;;1.58;;
12760;SDS011;6444;49.742;6.114;2023-07-24T11:16:06;2.00;;;1.80;;
12760;SDS011;6444;49.742;6.114;2023-07-24T11:18:32;2.45;;;1.37;;
12760;SDS011;6444;49.742;6.114;2023-07-24T11:20:58;2.22;;;1.95;;
12760;SDS011;6444;49.742;6.114;2023-07-24T11:23:25;1.40;;;1.30;;
12760;SDS011;6444;49.742;6.114;2023-07-24T11:25:52;2.78;;;1.50;;
12760;SDS011;6444;49.742;6.114;2023-07-24T11:28:18;2.83;;;1.37;;
12760;SDS011;6444;49.742;6.114;2023-07-24T11:30:45;1.40;;;1.20;;
12760;SDS011;6444;49.742;6.114;2023-07-24T11:33:12;1.20;;;1.02;;
12760;SDS011;6444;49.742;6.114;2023-07-24T11:35:39;1.35;;;1.25;;
12760;SDS011;6444;49.742;6.114;2023-07-24T11:38:06;1.35;;;1.25;;
12760;SDS011;6444;49.742;6.114;2023-07-24T11:43:04;1.33;;;1.10;;
12760;SDS011;6444;49.742;6.114;2023-07-24T11:45:31;1.10;;;1.00;;
12760;SDS011;6444;49.742;6.114;2023-07-24T11:47:57;0.80;;;0.80;;
12760;SDS011;6444;49.742;6.114;2023-07-24T11:50:24;1.65;;;1.15;;
12760;SDS011;6444;49.742;6.114;2023-07-24T11:52:51;1.48;;;1.37;;
12760;SDS011;6444;49.742;6.114;2023-07-24T11:55:18;1.23;;;1.10;;
12760;SDS011;6444;49.742;6.114;2023-07-24T11:58:06;1.52;;;1.20;;
12760;SDS011;6444;49.742;6.114;2023-07-24T12:00:23;1.70;;;1.08;;
12760;SDS011;6444;49.742;6.114;2023-07-24T12:02:50;1.40;;;1.30;;
12760;SDS011;6444;49.742;6.114;2023-07-24T12:05:17;1.48;;;1.37;;
12760;SDS011;6444;49.742;6.114;2023-07-24T12:07:44;1.15;;;1.05;;
12760;SDS011;6444;49.742;6.114;2023-07-24T12:10:10;1.52;;;1.37;;
12760;SDS011;6444;49.742;6.114;2023-07-24T12:12:40;2.05;;;1.40;;
12760;SDS011;6444;49.742;6.114;2023-07-24T12:15:10;1.35;;;1.20;;
12760;SDS011;6444;49.742;6.114;2023-07-24T12:17:36;1.87;;;1.20;;
12760;SDS011;6444;49.742;6.114;2023-07-24T12:20:03;1.37;;;1.27;;
12760;SDS011;6444;49.742;6.114;2023-07-24T12:22:30;1.60;;;1.27;;
12760;SDS011;6444;49.742;6.114;2023-07-24T12:24:56;1.60;;;1.50;;
12760;SDS011;6444;49.742;6.114;2023-07-24T12:27:23;1.67;;;1.58;;
12760;SDS011;6444;49.742;6.114;2023-07-24T12:29:51;2.60;;;1.25;;
12760;SDS011;6444;49.742;6.114;2023-07-24T12:32:17;1.62;;;1.35;;
12760;SDS011;6444;49.742;6.114;2023-07-24T12:34:46;1.40;;;1.30;;
12760;SDS011;6444;49.742;6.114;2023-07-24T12:37:14;1.67;;;1.55;;
12760;SDS011;6444;49.742;6.114;2023-07-24T12:39:40;1.90;;;1.45;;
12760;SDS011;6444;49.742;6.114;2023-07-24T12:42:07;2.20;;;1.40;;
12760;SDS011;6444;49.742;6.114;2023-07-24T12:44:34;2.47;;;1.45;;
12760;SDS011;6444;49.742;6.114;2023-07-24T12:47:01;1.77;;;1.30;;
12760;SDS011;6444;49.742;6.114;2023-07-24T12:49:28;2.58;;;1.50;;
12760;SDS011;6444;49.742;6.114;2023-07-24T12:51:54;2.10;;;1.67;;
12760;SDS011;6444;49.742;6.114;2023-07-24T12:54:21;1.60;;;1.50;;
12760;SDS011;6444;49.742;6.114;2023-07-24T12:56:51;2.20;;;1.45;;
12760;SDS011;6444;49.742;6.114;2023-07-24T12:59:18;2.65;;;1.50;;
12760;SDS011;6444;49.742;6.114;2023-07-24T13:01:45;1.98;;;1.40;;
12760;SDS011;6444;49.742;6.114;2023-07-24T13:04:12;2.47;;;1.60;;
12760;SDS011;6444;49.742;6.114;2023-07-24T13:06:39;1.62;;;1.27;;
12760;SDS011;6444;49.742;6.114;2023-07-24T13:09:05;1.40;;;1.30;;
12760;SDS011;6444;49.742;6.114;2023-07-24T13:11:32;1.70;;;1.30;;
12760;SDS011;6444;49.742;6.114;2023-07-24T13:13:59;1.90;;;1.50;;
12760;SDS011;6444;49.742;6.114;2023-07-24T13:16:26;1.80;;;1.45;;
12760;SDS011;6444;49.742;6.114;2023-07-24T13:18:53;1.80;;;1.42;;
12760;SDS011;6444;49.742;6.114;2023-07-24T13:21:19;1.50;;;1.40;;
12760;SDS011;6444;49.742;6.114;2023-07-24T13:23:46;1.62;;;1.52;;
12760;SDS011;6444;49.742;6.114;2023-07-24T13:26:13;2.45;;;1.33;;
12760;SDS011;6444;49.742;6.114;2023-07-24T13:28:40;1.58;;;1.48;;
12760;SDS011;6444;49.742;6.114;2023-07-24T13:31:16;2.28;;;1.40;;
12760;SDS011;6444;49.742;6.114;2023-07-24T13:33:45;1.98;;;1.50;;
12760;SDS011;6444;49.742;6.114;2023-07-24T13:36:12;1.50;;;1.40;;
12760;SDS011;6444;49.742;6.114;2023-07-24T13:38:38;5.18;;;1.83;;
12760;SDS011;6444;49.742;6.114;2023-07-24T13:41:06;2.65;;;1.50;;
12760;SDS011;6444;49.742;6.114;2023-07-24T13:43:32;1.58;;;1.40;;
12760;SDS011;6444;49.742;6.114;2023-07-24T13:45:59;2.12;;;1.70;;
12760;SDS011;6444;49.742;6.114;2023-07-24T13:48:27;2.12;;;1.87;;
12760;SDS011;6444;49.742;6.114;2023-07-24T13:50:56;1.85;;;1.70;;
12760;SDS011;6444;49.742;6.114;2023-07-24T13:53:22;4.10;;;1.67;;
12760;SDS011;6444;49.742;6.114;2023-07-24T13:55:49;2.03;;;1.50;;
12760;SDS011;6444;49.742;6.114;2023-07-24T13:58:16;2.10;;;1.52;;
12760;SDS011;6444;49.742;6.114;2023-07-24T14:00:43;3.05;;;1.73;;
12760;SDS011;6444;49.742;6.114;2023-07-24T14:03:10;4.78;;;1.90;;
12760;SDS011;6444;49.742;6.114;2023-07-24T14:05:36;1.98;;;1.55;;
12760;SDS011;6444;49.742;6.114;2023-07-24T14:08:03;3.22;;;1.98;;
12760;SDS011;6444;49.742;6.114;2023-07-24T14:10:30;2.95;;;1.75;;
12760;SDS011;6444;49.742;6.114;2023-07-24T14:12:56;2.00;;;1.80;;
12760;SDS011;6444;49.742;6.114;2023-07-24T14:15:23;2.35;;;2.05;;
12760;SDS011;6444;49.742;6.114;2023-07-24T14:17:49;1.83;;;1.65;;
12760;SDS011;6444;49.742;6.114;2023-07-24T14:20:16;4.57;;;1.75;;
12760;SDS011;6444;49.742;6.114;2023-07-24T14:22:43;2.53;;;1.85;;
12760;SDS011;6444;49.742;6.114;2023-07-24T14:25:09;2.53;;;1.65;;
12760;SDS011;6444;49.742;6.114;2023-07-24T14:27:36;2.67;;;1.77;;
12760;SDS011;6444;49.742;6.114;2023-07-24T14:30:03;2.22;;;1.70;;
12760;SDS011;6444;49.742;6.114;2023-07-24T14:32:29;2.33;;;1.42;;
12760;SDS011;6444;49.742;6.114;2023-07-24T14:34:56;2.80;;;1.90;;
12760;SDS011;6444;49.742;6.114;2023-07-24T14:37:23;2.65;;;1.65;;
12760;SDS011;6444;49.742;6.114;2023-07-24T14:39:49;3.70;;;2.00;;
12760;SDS011;6444;49.742;6.114;2023-07-24T14:42:22;3.40;;;1.83;;
12760;SDS011;6444;49.742;6.114;2023-07-24T14:44:49;2.90;;;2.00;;
12760;SDS011;6444;49.742;6.114;2023-07-24T14:47:17;2.78;;;1.85;;
12760;SDS011;6444;49.742;6.114;2023-07-24T14:49:42;2.60;;;2.08;;
12760;SDS011;6444;49.742;6.114;2023-07-24T14:52:09;1.90;;;1.50;;
12760;SDS011;6444;49.742;6.114;2023-07-24T14:54:38;3.47;;;1.90;;
12760;SDS011;6444;49.742;6.114;2023-07-24T14:57:05;1.87;;;1.70;;
12760;SDS011;6444;49.742;6.114;2023-07-24T14:59:31;2.70;;;1.67;;
12760;SDS011;6444;49.742;6.114;2023-07-24T15:01:58;1.70;;;1.60;;
12760;SDS011;6444;49.742;6.114;2023-07-24T15:04:24;3.28;;;1.70;;
12760;SDS011;6444;49.742;6.114;2023-07-24T15:06:51;1.73;;;1.62;;